Time;durP1;ratioP1;P1;durP2;ratioP2;P2;SDS_P1;SDS_P2;PMS_P1;PMS_P2;Temp;Humidity;BMP_temperature;BMP_pressure;BME280_temperature;BME280_humidity;BME280_pressure;Samples;Min_cycle;Max_cycle;Signal;HPM_P1;HPM_P2
2024/04/17 00:02:06;;;;;;;23.10;5.72;;;;;;;6.27;92.39;100433.50;6691593;21;20030;-82
2024/04/17 00:04:35;;;;;;;22.48;6.30;;;;;;;6.25;92.29;100427.50;6694291;21;20010;-84
2024/04/17 00:07:03;;;;;;;23.60;6.03;;;;;;;6.22;92.39;100431.22;6695555;21;20063;-87
2024/04/17 00:09:29;;;;;;;18.40;5.68;;;;;;;6.16;93.49;100433.44;6694128;21;20027;-84
2024/04/17 00:11:58;;;;;;;14.60;5.82;;;;;;;6.11;93.19;100444.28;6695682;21;20326;-82
2024/04/17 00:14:24;;;;;;;17.50;5.60;;;;;;;6.02;93.50;100435.25;6691225;21;19991;-82
2024/04/17 00:16:52;;;;;;;22.83;6.25;;;;;;;6.00;93.60;100437.16;6691012;21;20332;-81
2024/04/17 00:19:18;;;;;;;17.33;6.30;;;;;;;5.90;94.44;100449.25;6690481;21;20010;-82
2024/04/17 00:21:49;;;;;;;19.23;6.07;;;;;;;5.88;94.20;100443.25;6689746;21;19998;-83
2024/04/17 00:24:15;;;;;;;16.98;6.20;;;;;;;5.84;95.20;100447.88;6690640;21;20489;-82
2024/04/17 00:26:43;;;;;;;16.40;6.75;;;;;;;5.81;95.02;100449.91;6691996;21;20013;-83
2024/04/17 00:29:08;;;;;;;23.20;6.28;;;;;;;5.72;94.44;100454.00;6689967;21;19995;-82
2024/04/17 00:31:37;;;;;;;24.83;6.60;;;;;;;5.64;94.73;100455.50;6690946;21;20421;-83
2024/04/17 00:34:04;;;;;;;24.42;5.82;;;;;;;5.58;94.90;100457.59;6689862;21;19995;-84
2024/04/17 00:36:32;;;;;;;20.45;6.68;;;;;;;5.50;95.34;100464.31;6689086;21;19999;-83
2024/04/17 00:39:01;;;;;;;19.58;5.80;;;;;;;5.37;95.68;100458.25;6689135;21;20003;-83
2024/04/17 00:41:29;;;;;;;23.95;6.57;;;;;;;5.34;95.64;100461.91;6689643;21;20429;-83
2024/04/17 00:43:54;;;;;;;20.85;6.60;;;;;;;5.29;95.88;100453.50;6688659;21;19995;-82
2024/04/17 00:46:23;;;;;;;18.98;6.63;;;;;;;5.26;96.05;100466.81;6689165;21;19995;-81
2024/04/17 00:48:49;;;;;;;20.67;6.38;;;;;;;5.16;96.51;100465.78;6688217;21;20293;-82
2024/04/17 00:51:17;;;;;;;18.25;6.45;;;;;;;5.04;97.04;100462.19;6688494;21;20013;-83
2024/04/17 00:53:43;;;;;;;20.23;6.65;;;;;;;5.03;96.88;100461.34;6688836;21;19999;-82
2024/04/17 00:56:14;;;;;;;15.98;5.85;;;;;;;5.00;96.75;100456.34;6688853;21;20440;-82
2024/04/17 00:58:40;;;;;;;22.20;6.47;;;;;;;4.92;97.07;100455.16;6688783;21;20010;-82
2024/04/17 01:01:08;;;;;;;26.67;6.55;;;;;;;4.93;97.17;100460.28;6688966;21;20030;-82
2024/04/17 01:03:34;;;;;;;16.20;6.82;;;;;;;4.88;97.17;100458.94;6696338;21;19999;-82
2024/04/17 01:06:02;;;;;;;22.02;6.18;;;;;;;4.85;97.79;100457.34;6699632;21;19999;-83
2024/04/17 01:08:29;;;;;;;21.88;6.68;;;;;;;4.82;97.25;100468.00;6693333;21;20007;-83
2024/04/17 01:11:01;;;;;;;25.83;6.55;;;;;;;4.82;97.00;100465.41;6691250;21;20014;-83
2024/04/17 01:13:29;;;;;;;20.17;6.00;;;;;;;4.77;97.67;100459.63;6691093;21;19995;-83
2024/04/17 01:15:58;;;;;;;22.17;6.15;;;;;;;4.77;97.46;100455.22;6691434;21;20003;-83
2024/04/17 01:18:24;;;;;;;18.58;6.70;;;;;;;4.65;97.45;100452.59;6695211;21;20029;-83
2024/04/17 01:20:53;;;;;;;29.27;6.47;;;;;;;4.63;97.56;100454.44;6691013;21;20014;-83
2024/04/17 01:23:18;;;;;;;23.70;6.38;;;;;;;4.59;97.22;100451.19;6690390;21;19999;-83
2024/04/17 01:25:50;;;;;;;23.42;6.20;;;;;;;4.56;98.02;100457.47;6691180;21;19999;-83
2024/04/17 01:28:17;;;;;;;30.70;7.50;;;;;;;4.55;97.79;100450.56;6689780;21;20007;-83
2024/04/17 01:30:46;;;;;;;25.13;6.28;;;;;;;4.55;98.42;100457.56;6690303;21;20414;-82
2024/04/17 01:33:11;;;;;;;26.73;6.38;;;;;;;4.53;97.60;100443.72;6689631;21;19995;-83
2024/04/17 01:35:40;;;;;;;22.15;6.35;;;;;;;4.49;97.45;100453.56;6689726;21;20311;-83
2024/04/17 01:38:05;;;;;;;22.85;6.07;;;;;;;4.47;97.67;100452.00;6690184;21;19999;-83
2024/04/17 01:40:33;;;;;;;16.85;5.90;;;;;;;4.44;97.64;100452.19;6690155;21;20013;-83
2024/04/17 01:43:02;;;;;;;22.52;6.15;;;;;;;4.37;97.92;100456.97;6690710;21;20010;-84
2024/04/17 01:45:30;;;;;;;26.27;6.28;;;;;;;4.31;98.29;100452.13;6691107;21;19991;-84
2024/04/17 01:47:56;;;;;;;18.05;5.88;;;;;;;4.30;98.08;100450.47;6691275;21;19999;-83
2024/04/17 01:50:31;;;;;;;21.20;5.47;;;;;;;4.29;98.17;100460.09;6692101;21;20009;-83
2024/04/17 01:52:56;;;;;;;25.67;6.53;;;;;;;4.29;97.72;100454.03;6689787;21;20030;-82
2024/04/17 01:55:25;;;;;;;25.48;6.28;;;;;;;4.22;97.79;100457.97;6689373;21;19991;-83
2024/04/17 01:57:50;;;;;;;26.02;7.53;;;;;;;4.14;97.81;100462.84;6689512;21;20010;-81
2024/04/17 02:00:21;;;;;;;23.98;6.78;;;;;;;4.13;98.51;100459.41;6688894;21;20336;-82
2024/04/17 02:02:47;;;;;;;15.13;6.25;;;;;;;4.11;98.02;100455.19;6691039;21;20014;-83
2024/04/17 02:05:15;;;;;;;22.17;6.60;;;;;;;4.11;98.45;100460.41;6690046;21;19995;-81
2024/04/17 02:07:41;;;;;;;25.38;6.97;;;;;;;4.13;98.16;100466.41;6692536;21;20014;-82
2024/04/17 02:10:10;;;;;;;22.35;7.20;;;;;;;4.12;98.28;100470.81;6692340;21;19995;-82
2024/04/17 02:12:35;;;;;;;27.48;8.13;;;;;;;4.08;98.20;100468.47;6693437;21;19995;-82
2024/04/17 02:15:04;;;;;;;31.08;7.85;;;;;;;4.05;98.24;100470.34;6691565;21;20009;-82
2024/04/17 02:17:32;;;;;;;22.13;7.55;;;;;;;4.06;98.57;100473.78;6690628;21;19995;-82
2024/04/17 02:20:00;;;;;;;25.50;8.98;;;;;;;4.03;98.25;100469.63;6692831;21;19995;-82
2024/04/17 02:22:26;;;;;;;25.92;8.48;;;;;;;4.01;98.24;100476.72;6693578;21;19991;-82
2024/04/17 02:24:54;;;;;;;15.55;7.00;;;;;;;3.97;98.59;100480.47;6694501;21;20014;-81
2024/04/17 02:27:20;;;;;;;32.40;8.27;;;;;;;3.99;98.12;100483.81;6693724;21;19995;-82
2024/04/17 02:29:51;;;;;;;18.17;7.50;;;;;;;4.01;98.06;100479.31;6690819;21;20014;-81
2024/04/17 02:32:16;;;;;;;20.85;7.38;;;;;;;3.98;98.06;100476.91;6690226;21;20402;-80
2024/04/17 02:34:47;;;;;;;21.60;7.50;;;;;;;3.90;98.12;100481.78;6690575;21;20009;-83
2024/04/17 02:37:13;;;;;;;20.30;6.50;;;;;;;3.87;98.36;100487.19;6690903;21;19991;-82
2024/04/17 02:39:41;;;;;;;21.15;7.15;;;;;;;3.84;98.45;100481.31;6691353;21;20018;-83
2024/04/17 02:42:07;;;;;;;27.27;7.20;;;;;;;3.85;97.76;100483.84;6690561;21;20010;-82
2024/04/17 02:44:35;;;;;;;23.38;6.97;;;;;;;3.82;98.36;100480.56;6690790;21;20382;-84
2024/04/17 02:47:01;;;;;;;19.85;7.25;;;;;;;3.73;98.23;100481.97;6690656;21;19995;-83
2024/04/17 02:49:29;;;;;;;25.17;7.72;;;;;;;3.71;98.20;100478.63;6691585;21;20034;-84
2024/04/17 02:51:57;;;;;;;30.13;7.50;;;;;;;3.65;97.70;100479.00;6690984;21;19999;-84
2024/04/17 02:54:26;;;;;;;22.10;7.07;;;;;;;3.69;98.41;100475.25;6693222;21;20006;-83
2024/04/17 02:56:51;;;;;;;26.25;7.70;;;;;;;3.61;98.55;100483.56;6692001;21;19999;-84
2024/04/17 02:59:20;;;;;;;21.58;7.53;;;;;;;3.63;98.43;100486.94;6692786;21;19995;-84
2024/04/17 03:01:48;;;;;;;21.27;7.75;;;;;;;3.62;98.31;100484.44;6692990;21;20006;-84
2024/04/17 03:04:13;;;;;;;22.00;7.65;;;;;;;3.60;97.81;100487.13;6691834;21;19994;-83
2024/04/17 03:06:43;;;;;;;18.67;7.85;;;;;;;3.57;98.61;100483.84;6692879;21;19999;-85
2024/04/17 03:09:11;;;;;;;18.85;6.97;;;;;;;3.58;97.95;100488.16;6694911;21;20002;-84
2024/04/17 03:11:39;;;;;;;28.20;8.23;;;;;;;3.58;98.38;100483.78;6695601;21;19999;-84
2024/04/17 03:14:05;;;;;;;27.75;8.02;;;;;;;3.57;98.44;100486.47;6693960;21;20014;-83
2024/04/17 03:16:33;;;;;;;24.25;7.65;;;;;;;3.48;98.41;100490.47;6693376;21;20007;-84
2024/04/17 03:18:59;;;;;;;18.25;7.35;;;;;;;3.46;98.31;100485.34;6692868;21;20425;-82
2024/04/17 03:21:28;;;;;;;28.73;8.27;;;;;;;3.46;98.68;100495.81;6691702;21;19999;-81
2024/04/17 03:23:54;;;;;;;20.02;6.95;;;;;;;3.46;98.49;100495.81;6692324;21;20005;-84
2024/04/17 03:26:25;;;;;;;20.10;8.32;;;;;;;3.45;98.53;100496.75;6692667;21;19995;-83
2024/04/17 03:28:50;;;;;;;25.33;8.32;;;;;;;3.43;97.97;100493.38;6695571;21;19991;-82
2024/04/17 03:31:19;;;;;;;20.30;8.43;;;;;;;3.42;98.29;100502.16;6694798;21;19999;-82
2024/04/17 03:33:45;;;;;;;30.58;8.60;;;;;;;3.41;98.57;100497.84;6702924;21;19991;-83
2024/04/17 03:36:14;;;;;;;22.70;7.97;;;;;;;3.44;98.16;100508.16;6695677;21;19999;-83
2024/04/17 03:38:42;;;;;;;17.60;7.50;;;;;;;3.46;98.26;100503.66;6695794;21;20003;-83
2024/04/17 03:41:10;;;;;;;19.33;8.07;;;;;;;3.41;98.76;100502.25;6695780;21;20003;-83
2024/04/17 03:43:41;;;;;;;19.10;8.90;;;;;;;3.44;98.50;100512.53;6696669;21;20010;-83
2024/04/17 03:46:09;;;;;;;31.20;8.82;;;;;;;3.47;98.58;100507.09;6695646;21;19999;-83
2024/04/17 03:48:37;;;;;;;21.95;9.23;;;;;;;3.42;98.71;100504.75;6692863;21;20368;-83
2024/04/17 03:51:06;;;;;;;31.58;8.57;;;;;;;3.38;99.00;100513.72;6693037;21;20010;-83
2024/04/17 03:53:32;;;;;;;22.67;9.40;;;;;;;3.39;98.44;100510.16;6693851;21;20309;-82
2024/04/17 03:56:00;;;;;;;26.20;8.40;;;;;;;3.34;98.59;100514.84;6692890;21;20028;-82
2024/04/17 03:58:26;;;;;;;22.08;8.07;;;;;;;3.27;99.43;100510.91;6689982;21;19992;-82
2024/04/17 04:00:57;;;;;;;21.67;7.18;;;;;;;3.19;100.00;100515.75;6691054;21;19995;-82
2024/04/17 04:03:22;;;;;;;20.70;7.63;;;;;;;3.16;99.35;100515.94;6691676;21;20273;-82
2024/04/17 04:05:51;;;;;;;26.85;8.38;;;;;;;3.06;99.54;100517.41;6690885;21;19999;-82
2024/04/17 04:08:16;;;;;;;19.27;8.70;;;;;;;3.05;100.00;100511.34;6690991;21;19999;-82
2024/04/17 04:10:44;;;;;;;23.25;7.60;;;;;;;3.01;100.00;100504.59;6692098;21;20009;-82
2024/04/17 04:13:10;;;;;;;24.40;8.27;;;;;;;2.97;99.79;100511.78;6690966;21;20009;-81
2024/04/17 04:15:38;;;;;;;20.55;7.65;;;;;;;3.00;99.31;100519.44;6690763;21;19995;-81
2024/04/17 04:18:09;;;;;;;26.02;8.00;;;;;;;3.09;99.62;100517.22;6691782;21;19996;-81
2024/04/17 04:20:38;;;;;;;25.55;8.32;;;;;;;3.09;99.03;100514.63;6692160;21;20081;-82
2024/04/17 04:23:04;;;;;;;17.67;7.57;;;;;;;3.14;99.66;100523.03;6690470;21;19999;-82
2024/04/17 04:25:32;;;;;;;29.02;8.70;;;;;;;3.18;99.30;100521.91;6688992;21;20009;-81
2024/04/17 04:27:57;;;;;;;27.08;8.18;;;;;;;3.18;99.04;100527.16;6689464;21;19991;-80
2024/04/17 04:30:26;;;;;;;22.58;9.05;;;;;;;3.18;99.21;100521.91;6690894;21;20009;-81
2024/04/17 04:32:51;;;;;;;24.45;9.70;;;;;;;3.16;99.61;100523.75;6689301;21;20076;-81
2024/04/17 04:35:22;;;;;;;29.67;10.07;;;;;;;3.15;99.69;100528.16;6690604;21;20006;-83
2024/04/17 04:37:48;;;;;;;28.60;9.63;;;;;;;3.20;99.80;100525.28;6689015;21;20724;-81
2024/04/17 04:40:16;;;;;;;24.17;9.70;;;;;;;3.23;99.27;100532.94;6689065;21;20006;-79
2024/04/17 04:42:42;;;;;;;27.55;10.57;;;;;;;3.11;99.65;100531.03;6688975;21;19995;-82
2024/04/17 04:45:10;;;;;;;27.25;10.55;;;;;;;3.15;99.86;100530.78;6689355;21;20422;-82
2024/04/17 04:47:36;;;;;;;27.77;11.48;;;;;;;3.23;99.93;100532.94;6689327;21;19995;-81
2024/04/17 04:50:04;;;;;;;28.92;12.35;;;;;;;3.14;99.85;100531.72;6691353;21;20067;-82
2024/04/17 04:52:32;;;;;;;28.50;13.52;;;;;;;3.27;99.40;100531.84;6690343;21;20010;-82
2024/04/17 04:55:00;;;;;;;36.38;13.98;;;;;;;3.24;99.19;100537.25;6689010;21;20007;-82
2024/04/17 04:57:26;;;;;;;32.95;15.50;;;;;;;3.22;99.87;100533.88;6687923;21;20006;-82
2024/04/17 04:59:55;;;;;;;36.58;15.38;;;;;;;3.21;100.00;100533.03;6689201;21;20050;-83
2024/04/17 05:02:20;;;;;;;36.78;16.00;;;;;;;3.25;100.00;100533.69;6690373;21;19995;-83
2024/04/17 05:04:48;;;;;;;37.90;16.98;;;;;;;3.27;99.67;100540.53;6691084;21;19999;-82
2024/04/17 05:07:14;;;;;;;45.67;20.85;;;;;;;3.27;99.58;100542.31;6690333;21;19995;-80
2024/04/17 05:09:45;;;;;;;59.90;25.83;;;;;;;3.26;99.75;100553.69;6691153;21;20461;-82
2024/04/17 05:12:11;;;;;;;72.50;26.33;;;;;;;3.21;100.00;100553.94;6691229;21;19995;-83
2024/04/17 05:14:39;;;;;;;71.10;30.02;;;;;;;3.31;100.00;100553.44;6691867;21;20031;-82
2024/04/17 05:17:05;;;;;;;78.15;31.13;;;;;;;3.31;100.00;100554.28;6691714;21;20005;-83
2024/04/17 05:19:33;;;;;;;79.75;30.85;;;;;;;3.44;100.00;100557.00;6690940;21;19995;-82
2024/04/17 05:21:59;;;;;;;95.03;31.42;;;;;;;3.51;100.00;100567.00;6690278;21;19998;-81
2024/04/17 05:24:27;;;;;;;86.95;35.17;;;;;;;3.57;100.00;100560.56;6691084;21;19995;-82
2024/04/17 05:26:55;;;;;;;96.47;37.15;;;;;;;3.67;100.00;100566.09;6691499;21;20030;-82
2024/04/17 05:29:23;;;;;;;115.53;44.20;;;;;;;3.67;100.00;100561.72;6690710;21;20005;-82
2024/04/17 05:31:49;;;;;;;111.25;46.47;;;;;;;3.68;100.00;100558.16;6691906;21;19991;-81
2024/04/17 05:34:17;;;;;;;122.63;49.10;;;;;;;3.69;100.00;100561.59;6697094;21;20080;-81
2024/04/17 05:36:43;;;;;;;113.63;47.78;;;;;;;3.75;100.00;100559.47;6703942;21;19999;-82
2024/04/17 05:39:11;;;;;;;102.65;44.28;;;;;;;3.91;99.95;100562.00;6694161;21;19999;-81
2024/04/17 05:41:37;;;;;;;108.38;43.65;;;;;;;4.01;99.48;100565.72;6690035;21;20287;-81
2024/04/17 05:44:08;;;;;;;103.65;44.00;;;;;;;3.96;100.00;100567.78;6689670;21;20010;-81
2024/04/17 05:46:34;;;;;;;109.85;45.25;;;;;;;4.11;100.00;100565.16;6688706;21;20422;-81
2024/04/17 05:49:03;;;;;;;105.88;44.95;;;;;;;4.27;99.39;100565.91;6688088;21;20010;-81
2024/04/17 05:51:28;;;;;;;96.43;43.08;;;;;;;4.47;98.61;100568.13;6694697;21;19999;-82
2024/04/17 05:53:56;;;;;;;89.60;40.72;;;;;;;4.54;98.76;100566.78;6693214;21;20094;-82
2024/04/17 05:56:22;;;;;;;81.88;38.90;;;;;;;4.64;97.66;100569.66;6685852;21;20027;-82
2024/04/17 05:58:51;;;;;;;80.90;36.97;;;;;;;4.57;97.81;100566.59;6689317;21;19995;-82
2024/04/17 06:01:19;;;;;;;70.22;37.08;;;;;;;4.65;97.52;100578.41;6689330;21;20514;-83
2024/04/17 06:03:47;;;;;;;66.90;34.20;;;;;;;4.64;97.09;100569.66;6691194;21;20010;-82
2024/04/17 06:06:13;;;;;;;64.47;34.33;;;;;;;4.64;97.23;100568.81;6696012;21;20233;-82
2024/04/17 06:08:41;;;;;;;66.97;34.45;;;;;;;4.63;97.83;100568.00;6697007;21;20009;-83
2024/04/17 06:11:07;;;;;;;65.75;33.70;;;;;;;4.63;97.64;100573.22;6696959;21;20005;-84
2024/04/17 06:13:36;;;;;;;65.47;34.58;;;;;;;4.60;97.67;100577.81;6694891;21;20007;-82
2024/04/17 06:16:02;;;;;;;63.53;34.30;;;;;;;4.63;97.42;100578.47;6694770;21;19991;-83
2024/04/17 06:18:36;;;;;;;66.40;31.90;;;;;;;4.80;96.83;100575.63;6704181;21;20028;-84
2024/04/17 06:21:06;;;;;;;53.10;27.95;;;;;;;4.93;95.52;100577.47;6711395;21;19987;-84
2024/04/17 06:27:48;;;;;;;;;;;;;;;;;;;;;
2024/04/17 06:36:10;;;;;;;27.02;13.93;;;;;;;6.43;87.29;100565.50;6639432;21;20154;-83
2024/04/17 06:39:37;;;;;;;23.38;10.90;;;;;;;6.31;88.14;100569.00;6392958;22;20079;-82
2024/04/17 06:42:41;;;;;;;20.73;10.23;;;;;;;6.01;87.95;100564.09;6533483;21;20004;-81
2024/04/17 06:46:01;;;;;;;;;;;;;;;;;;;;;
2024/04/17 06:48:52;;;;;;;21.98;10.05;;;;;;;5.90;89.40;100579.72;6564265;21;20034;-84
2024/04/17 06:51:19;;;;;;;20.83;9.90;;;;;;;5.65;90.56;100575.31;6692223;21;20015;-84
2024/04/17 06:53:47;;;;;;;19.33;10.50;;;;;;;5.61;91.20;100577.28;6692564;21;20002;-83
2024/04/17 06:56:13;;;;;;;21.92;10.00;;;;;;;5.66;90.53;100585.69;6692340;21;20430;-82
2024/04/17 06:58:44;;;;;;;15.52;9.70;;;;;;;5.47;90.34;100580.00;6695164;21;20003;-85
2024/04/17 07:01:09;;;;;;;22.52;10.20;;;;;;;5.43;91.69;100583.78;6696575;21;19995;-84
2024/04/17 07:03:38;;;;;;;19.13;10.15;;;;;;;5.26;92.18;100588.34;6696682;21;19995;-84
2024/04/17 07:06:05;;;;;;;20.33;10.60;;;;;;;5.45;90.45;100587.16;6695024;21;19991;-84
2024/04/17 07:08:33;;;;;;;18.52;9.13;;;;;;;5.41;91.45;100596.16;6694969;21;20075;-83
2024/04/17 07:10:59;;;;;;;23.30;10.70;;;;;;;5.54;91.24;100587.38;6695580;21;19995;-85
2024/04/17 07:13:27;;;;;;;17.45;10.23;;;;;;;5.46;91.14;100589.66;6695998;21;19995;-82
2024/04/17 07:15:57;;;;;;;17.40;9.77;;;;;;;5.62;89.49;100592.09;6696426;21;19991;-87
2024/04/17 07:18:27;;;;;;;17.75;11.15;;;;;;;5.68;89.68;100586.44;6693083;21;19999;-83
2024/04/17 07:20:53;;;;;;;14.05;8.43;;;;;;;5.74;87.84;100588.63;6696102;21;20002;-86
2024/04/17 07:23:21;;;;;;;14.63;6.82;;;;;;;5.61;88.07;100586.94;6697068;21;20082;-83
2024/04/17 07:25:47;;;;;;;14.30;6.90;;;;;;;5.42;87.87;100587.34;6698147;21;19991;-83
2024/04/17 07:28:15;;;;;;;11.68;5.90;;;;;;;5.34;87.19;100585.22;6694064;21;19999;-81
2024/04/17 07:30:41;;;;;;;9.85;5.72;;;;;;;5.13;88.71;100587.47;6697467;21;19991;-84
2024/04/17 07:33:12;;;;;;;11.05;6.15;;;;;;;5.16;89.09;100589.06;6694272;21;20009;-82
2024/04/17 07:35:38;;;;;;;12.38;6.20;;;;;;;5.13;89.50;100591.88;6695310;21;20007;-80
2024/04/17 07:38:09;;;;;;;11.18;6.38;;;;;;;5.17;89.76;100588.13;6692939;21;20267;-82
2024/04/17 07:40:34;;;;;;;10.95;6.35;;;;;;;5.28;90.11;100593.50;6695652;21;19991;-84
2024/04/17 07:43:02;;;;;;;10.93;6.13;;;;;;;5.30;88.91;100584.59;6694571;21;19991;-83
2024/04/17 07:45:28;;;;;;;15.60;6.07;;;;;;;5.30;90.15;100595.06;6695270;21;19999;-84
2024/04/17 07:47:56;;;;;;;10.30;5.05;;;;;;;5.35;90.58;100592.16;6696181;21;19991;-85
2024/04/17 07:50:25;;;;;;;6.82;3.08;;;;;;;5.18;88.13;100589.78;6694872;21;20015;-81
2024/04/17 07:52:53;;;;;;;3.47;3.03;;;;;;;5.01;87.86;100588.28;6693547;21;19995;-82
2024/04/17 07:55:19;;;;;;;5.82;3.60;;;;;;;5.03;89.64;100592.47;6694238;21;19999;-84
2024/04/17 07:57:47;;;;;;;6.25;3.45;;;;;;;5.17;89.13;100583.72;6692910;21;20002;-84
2024/04/17 08:00:13;;;;;;;7.28;3.97;;;;;;;5.26;90.08;100583.09;6693555;21;19991;-83
2024/04/17 08:02:45;;;;;;;9.13;4.38;;;;;;;5.51;90.31;100579.69;6694038;21;20294;-84
2024/04/17 08:05:12;;;;;;;7.90;4.67;;;;;;;5.61;89.78;100568.56;6694325;21;20014;-84
2024/04/17 08:07:42;;;;;;;8.82;4.88;;;;;;;5.49;89.83;100565.84;6695882;21;20719;-84
2024/04/17 08:10:08;;;;;;;8.02;4.82;;;;;;;5.51;90.03;100569.19;6697425;21;19995;-82
2024/04/17 08:12:40;;;;;;;8.45;5.00;;;;;;;5.56;90.17;100566.25;6693263;21;20070;-83
2024/04/17 08:15:06;;;;;;;7.43;5.13;;;;;;;5.68;89.77;100568.06;6693756;21;19995;-83
2024/04/17 08:17:34;;;;;;;11.68;5.80;;;;;;;5.51;90.37;100561.31;6692290;21;20027;-81
2024/04/17 08:20:00;;;;;;;8.55;5.75;;;;;;;5.54;89.98;100571.63;6693059;21;19999;-83
2024/04/17 08:22:28;;;;;;;8.75;5.65;;;;;;;5.53;90.67;100574.34;6691671;21;19995;-85
2024/04/17 08:24:57;;;;;;;9.38;6.07;;;;;;;5.63;90.75;100574.56;6695891;21;19995;-85
2024/04/17 08:27:27;;;;;;;8.40;5.43;;;;;;;5.83;89.70;100576.66;6694188;21;20063;-81
2024/04/17 08:29:52;;;;;;;9.48;4.38;;;;;;;5.77;87.09;100575.31;6696804;21;20418;-81
2024/04/17 08:32:20;;;;;;;10.38;4.63;;;;;;;5.86;87.17;100578.25;6696068;21;20001;-82
2024/04/17 08:34:46;;;;;;;10.10;4.00;;;;;;;5.91;88.30;100579.63;6695662;21;20006;-82
2024/04/17 08:37:14;;;;;;;13.65;4.30;;;;;;;5.84;87.97;100579.19;6694533;21;19994;-80
2024/04/17 08:39:40;;;;;;;6.07;3.47;;;;;;;5.93;88.01;100572.50;6694624;21;20014;-80
2024/04/17 08:42:22;;;;;;;9.15;3.90;;;;;;;5.94;86.61;100579.44;6694537;21;20019;-82
2024/04/17 08:44:48;;;;;;;12.27;4.20;;;;;;;6.05;87.85;100587.41;6692750;21;19988;-83
2024/04/17 08:47:21;;;;;;;13.23;3.75;;;;;;;6.01;87.85;100580.69;6693765;21;20297;-81
2024/04/17 08:50:38;;;;;;;11.95;4.13;;;;;;;6.03;88.01;100583.22;6694126;21;19995;-81
2024/04/17 08:52:58;;;;;;;10.80;4.35;;;;;;;5.91;87.99;100582.25;6667356;21;20079;-82
2024/04/17 08:55:25;;;;;;;9.45;4.63;;;;;;;5.89;88.18;100585.91;6694681;21;20469;-82
2024/04/17 08:58:00;;;;;;;9.05;4.53;;;;;;;6.04;87.86;100591.00;6692877;21;20002;-81
2024/04/17 09:00:27;;;;;;;12.43;4.60;;;;;;;6.15;88.18;100584.97;6693620;21;19987;-82
2024/04/17 09:02:59;;;;;;;11.35;5.38;;;;;;;6.09;87.93;100593.31;6693175;21;20006;-82
2024/04/17 09:05:29;;;;;;;9.07;4.57;;;;;;;6.02;88.67;100597.28;6694479;21;19987;-81
2024/04/17 09:08:01;;;;;;;12.70;4.72;;;;;;;5.92;89.55;100594.44;6693907;21;20382;-82
2024/04/17 09:10:27;;;;;;;10.40;5.22;;;;;;;5.95;89.80;100596.03;6693200;21;19991;-83
2024/04/17 09:12:59;;;;;;;7.72;5.25;;;;;;;5.97;91.23;100600.22;6691899;21;20026;-80
2024/04/17 09:15:24;;;;;;;9.60;5.22;;;;;;;6.00;91.30;100605.28;6692739;21;19990;-82
2024/04/17 09:17:54;;;;;;;9.88;5.40;;;;;;;6.04;92.72;100600.66;6694096;21;20433;-83
2024/04/17 09:20:20;;;;;;;12.63;6.53;;;;;;;6.26;90.75;100597.38;6693373;21;20030;-82
2024/04/17 09:22:49;;;;;;;12.18;5.85;;;;;;;6.50;91.80;100598.28;6692406;21;19999;-83
2024/04/17 09:25:15;;;;;;;9.38;5.82;;;;;;;6.84;90.60;100596.72;6692833;21;19998;-81
2024/04/17 09:27:43;;;;;;;15.20;5.90;;;;;;;6.99;88.02;100596.53;6700014;21;19999;-83
2024/04/17 09:30:14;;;;;;;9.32;5.68;;;;;;;7.22;88.41;100589.59;6700182;21;20002;-82
2024/04/17 09:32:43;;;;;;;8.68;6.00;;;;;;;7.23;88.85;100596.50;6695492;21;19995;-83
2024/04/17 09:35:10;;;;;;;10.02;6.47;;;;;;;7.34;87.03;100588.69;6692380;21;19987;-84
2024/04/17 09:37:39;;;;;;;13.02;7.05;;;;;;;7.45;87.00;100590.50;6693620;21;20001;-83
2024/04/17 09:40:06;;;;;;;8.95;5.88;;;;;;;7.28;86.76;100589.16;6692909;21;19995;-81
2024/04/17 09:42:37;;;;;;;11.18;6.32;;;;;;;7.48;86.61;100579.75;6697995;21;19997;-82
2024/04/17 09:45:04;;;;;;;12.27;6.80;;;;;;;7.45;88.19;100579.97;6693353;21;20003;-80
2024/04/17 09:47:35;;;;;;;9.43;6.68;;;;;;;7.55;87.50;100580.97;6692130;21;20108;-80
2024/04/17 09:50:03;;;;;;;9.23;6.18;;;;;;;7.21;87.22;100587.91;6691844;21;20010;-82
2024/04/17 09:52:32;;;;;;;9.95;6.85;;;;;;;7.17;87.42;100570.66;6691402;21;19999;-82
2024/04/17 09:55:00;;;;;;;12.05;6.80;;;;;;;7.08;86.81;100574.81;6692048;21;20002;-83
2024/04/17 09:57:30;;;;;;;13.25;7.40;;;;;;;6.90;85.79;100570.91;6694807;21;20006;-80
2024/04/17 09:59:56;;;;;;;11.75;6.88;;;;;;;7.14;87.17;100576.16;6695578;21;19991;-80
2024/04/17 10:02:29;;;;;;;12.05;7.07;;;;;;;7.40;85.82;100577.69;6695871;21;20039;-83
2024/04/17 10:04:58;;;;;;;9.48;6.00;;;;;;;7.36;86.00;100581.50;6700692;21;19988;-81
2024/04/17 10:07:28;;;;;;;11.35;6.53;;;;;;;7.12;84.75;100580.69;6698024;21;20487;-82
2024/04/17 10:09:55;;;;;;;14.25;6.70;;;;;;;7.17;84.17;100576.75;6694806;21;20006;-82
2024/04/17 10:12:25;;;;;;;9.57;6.18;;;;;;;7.09;83.18;100576.47;6694653;21;20001;-82
2024/04/17 10:14:56;;;;;;;12.65;5.47;;;;;;;6.88;83.01;100575.44;6694944;21;20002;-81
2024/04/17 10:17:24;;;;;;;8.63;4.47;;;;;;;7.09;81.74;100581.75;6694418;21;19991;-83
2024/04/17 10:20:38;;;;;;;11.13;5.30;;;;;;;7.18;82.87;100567.91;6692679;21;19991;-82
2024/04/17 10:23:11;;;;;;;9.02;4.80;;;;;;;7.30;84.83;100567.00;6693498;21;20018;-83
2024/04/17 10:25:45;;;;;;;8.07;4.38;;;;;;;7.68;82.96;100572.94;6698290;21;20010;-83
2024/04/17 10:28:14;;;;;;;10.82;4.72;;;;;;;7.89;82.14;100566.03;6692617;21;20445;-83
2024/04/17 10:30:40;;;;;;;7.30;4.15;;;;;;;7.84;79.78;100561.13;6692977;21;19998;-84
2024/04/17 10:33:36;;;;;;;7.75;4.13;;;;;;;7.92;79.63;100563.19;6693315;21;20030;-84
2024/04/17 10:36:05;;;;;;;11.88;4.95;;;;;;;8.66;78.19;100565.28;6693731;21;19991;-83
2024/04/17 10:38:35;;;;;;;11.20;4.68;;;;;;;9.34;79.41;100554.38;6695341;21;20002;-84
2024/04/17 10:41:02;;;;;;;8.25;4.63;;;;;;;9.62;76.69;100554.69;6694256;21;19991;-83
2024/04/17 10:43:41;;;;;;;10.05;4.25;;;;;;;8.99;75.03;100556.47;6694287;21;20023;-83
2024/04/17 10:46:11;;;;;;;13.00;5.15;;;;;;;8.96;77.86;100548.78;6695699;21;20360;-82
2024/04/17 10:48:55;;;;;;;9.68;5.22;;;;;;;9.57;75.66;100547.16;6694632;21;20024;-83
2024/04/17 10:54:34;;;;;;;10.32;4.63;;;;;;;9.88;73.66;100541.91;6700585;21;20065;-83
2024/04/17 10:57:40;;;;;;;9.33;5.37;;;;;;;9.90;69.81;100542.59;6699999;21;19991;-82
2024/04/17 11:00:15;;;;;;;9.82;5.13;;;;;;;10.02;72.56;100535.44;6597598;21;20239;-83
2024/04/17 11:02:46;;;;;;;12.48;5.18;;;;;;;10.05;69.65;100528.06;6699168;21;20010;-83
2024/04/17 11:08:31;;;;;;;9.60;4.40;;;;;;;10.11;67.43;100524.88;6687019;21;19988;-84
2024/04/17 11:11:38;;;;;;;8.10;4.20;;;;;;;10.34;70.10;100524.72;6694266;21;20005;-83
2024/04/17 11:14:26;;;;;;;10.75;4.03;;;;;;;10.22;66.01;100525.75;6684051;21;20019;-84
2024/04/17 11:17:15;;;;;;;13.60;3.90;;;;;;;10.15;66.87;100520.16;6695481;21;20006;-82
2024/04/17 11:20:19;;;;;;;14.65;3.80;;;;;;;10.05;61.92;100517.50;6679541;21;19995;-84
2024/04/17 11:22:57;;;;;;;7.65;3.42;;;;;;;9.74;64.08;100513.19;6583971;21;20003;-83
2024/04/17 11:25:49;;;;;;;9.75;4.10;;;;;;;10.08;66.44;100509.28;6583890;21;20060;-83
2024/04/17 11:28:32;;;;;;;9.43;3.83;;;;;;;10.43;64.74;100494.78;6662791;21;20282;-81
2024/04/17 11:31:06;;;;;;;11.50;3.85;;;;;;;10.46;63.85;100499.81;6689465;21;20426;-83
2024/04/17 11:33:57;;;;;;;6.70;3.70;;;;;;;10.53;63.78;100494.81;6693615;21;20006;-83
2024/04/17 11:37:08;;;;;;;7.55;3.95;;;;;;;10.30;63.43;100495.03;6649299;21;20007;-82
2024/04/17 11:39:47;;;;;;;6.45;3.40;;;;;;;10.22;60.87;100497.50;6694811;21;19995;-81
2024/04/17 11:42:55;;;;;;;11.90;4.00;;;;;;;10.45;65.40;100492.03;6693504;21;20041;-82
2024/04/17 11:48:42;;;;;;;9.38;4.03;;;;;;;10.91;60.56;100488.72;6604987;21;20005;-84
2024/04/17 11:51:17;;;;;;;12.23;4.47;;;;;;;11.01;61.27;100481.59;6694145;21;19991;-82
2024/04/17 11:56:41;;;;;;;8.75;3.80;;;;;;;10.96;64.10;100483.81;6691336;21;19995;-82
2024/04/17 11:59:11;;;;;;;9.70;4.07;;;;;;;10.80;63.22;100486.19;6693106;21;19987;-84
2024/04/17 12:02:02;;;;;;;8.43;3.78;;;;;;;11.06;61.54;100482.00;6693271;21;20007;-83
2024/04/17 12:05:08;;;;;;;7.03;3.78;;;;;;;11.02;59.76;100480.59;6692714;21;19995;-82